createdAt,value
2024-05-09T00:03:16.988Z,1.6
2024-05-09T00:09:15.344Z,1.5
2024-05-09T00:15:11.393Z,2.4
2024-05-09T00:21:11.709Z,1.2
2024-05-09T00:27:01.870Z,2.2
2024-05-09T00:32:52.624Z,2
2024-05-09T00:38:44.323Z,1.7
2024-05-09T00:44:30.252Z,2
2024-05-09T00:50:38.762Z,1.9
2024-05-09T00:56:37.572Z,2.8
2024-05-09T01:02:27.955Z,2.8
2024-05-09T01:08:17.913Z,2.1
2024-05-09T01:14:02.847Z,2
2024-05-09T01:20:00.537Z,1.8
2024-05-09T01:25:50.119Z,0.6
2024-05-09T01:31:46.377Z,2.1
2024-05-09T01:37:38.708Z,3
2024-05-09T01:43:22.490Z,2.1
2024-05-09T01:49:12.479Z,1.6
2024-05-09T01:55:08.508Z,1.9
2024-05-09T02:01:05.401Z,1.5
2024-05-09T02:07:02.492Z,2
2024-05-09T02:12:47.132Z,1.6
2024-05-09T02:18:31.014Z,1.5
2024-05-09T02:24:15.736Z,1.5
2024-05-09T02:30:18.233Z,1.7
2024-05-09T02:36:06.713Z,1.4
2024-05-09T02:41:58.927Z,1.4
2024-05-09T02:47:44.180Z,1.2
2024-05-09T02:53:36.300Z,1.2
2024-05-09T02:59:26.078Z,1.9
2024-05-09T03:05:11.467Z,1.5
2024-05-09T03:11:02.248Z,1.6
2024-05-09T03:16:47.841Z,1.6
2024-05-09T03:22:32.372Z,1.5
2024-05-09T03:28:21.977Z,1.6
2024-05-09T03:34:11.969Z,2.5
2024-05-09T03:40:04.218Z,1.7
2024-05-09T03:45:56.353Z,2.4
2024-05-09T03:51:40.002Z,1.8
2024-05-09T03:57:23.614Z,1.8
2024-05-09T04:03:15.806Z,1.4
2024-05-09T04:09:00.020Z,2.9
2024-05-09T04:14:45.743Z,1.5
2024-05-09T04:20:42.594Z,1.9
2024-05-09T04:26:32.899Z,1.9
2024-05-09T04:32:18.969Z,2.1
2024-05-09T04:38:11.915Z,2.4
2024-05-09T04:44:14.927Z,1.8
2024-05-09T04:49:59.748Z,1.9
2024-05-09T04:55:55.695Z,0.8
2024-05-09T05:01:45.629Z,1.5
2024-05-09T05:07:29.634Z,1.3
2024-05-09T05:13:13.621Z,2.4
2024-05-09T05:18:57.428Z,2
2024-05-09T05:24:47.036Z,1.9
2024-05-09T05:30:36.382Z,2.2
2024-05-09T05:36:22.210Z,1.9
2024-05-09T05:42:07.972Z,2.9
2024-05-09T05:47:52.514Z,2.5
2024-05-09T05:53:37.804Z,2
2024-05-09T05:59:21.678Z,1.7
2024-05-09T06:05:05.877Z,1.8
2024-05-09T06:10:50.288Z,2
2024-05-09T06:16:40.316Z,2
2024-05-09T06:22:23.969Z,2.5
2024-05-09T06:28:08.153Z,2.2
2024-05-09T06:33:54.178Z,2
2024-05-09T06:39:43.954Z,2.9
2024-05-09T06:45:35.895Z,2.3
2024-05-09T06:51:19.992Z,2.1
2024-05-09T06:57:10.601Z,2.3
2024-05-09T07:03:07.345Z,3
2024-05-09T07:08:55.164Z,3.9
2024-05-09T07:14:47.801Z,2.3
2024-05-09T07:20:39.300Z,3.5
2024-05-09T07:26:25.287Z,3.8
2024-05-09T07:32:17.492Z,4.4
2024-05-09T07:38:02.224Z,2.9
2024-05-09T07:43:53.598Z,2.8
2024-05-09T07:50:54.550Z,2.4
2024-05-09T08:02:36.565Z,3.1
2024-05-09T08:08:36.795Z,4.5
2024-05-09T08:14:21.913Z,2.7
2024-05-09T08:20:22.912Z,3.2
2024-05-09T08:26:12.534Z,3.7
2024-05-09T08:31:57.552Z,4.6
2024-05-09T08:37:44.279Z,3.1
2024-05-09T08:43:35.240Z,4
2024-05-09T08:49:24.207Z,3.4
2024-05-09T08:55:10.646Z,3.5
2024-05-09T09:01:01.841Z,3.9
2024-05-09T09:07:04.718Z,3.6
2024-05-09T09:12:54.861Z,3
2024-05-09T09:18:41.871Z,4
2024-05-09T09:24:34.368Z,3.8
2024-05-09T09:30:39.470Z,3.2
2024-05-09T09:36:24.540Z,5
2024-05-09T09:42:21.897Z,3.4
2024-05-09T09:48:09.221Z,3.5
2024-05-09T09:54:17.919Z,4.3
2024-05-09T10:00:23.960Z,4.7
2024-05-09T10:06:14.478Z,4
2024-05-09T10:12:13.725Z,4.8
2024-05-09T10:18:03.302Z,3.6
2024-05-09T10:24:04.637Z,5.1
2024-05-09T10:30:03.848Z,3.9
2024-05-09T10:36:04.805Z,4.3
2024-05-09T10:41:55.602Z,3.8
2024-05-09T10:47:46.918Z,3.6
2024-05-09T10:53:31.106Z,4.1
2024-05-09T10:59:15.162Z,4.9
2024-05-09T11:05:05.564Z,3.3
2024-05-09T11:10:51.529Z,4
2024-05-09T11:16:37.632Z,2.9
2024-05-09T11:22:21.939Z,3.4
2024-05-09T11:28:06.469Z,3.9
2024-05-09T11:34:03.799Z,3.2
2024-05-09T11:39:59.848Z,4.3
2024-05-09T11:45:45.795Z,3.4
2024-05-09T11:51:30.988Z,3.5
2024-05-09T11:57:23.168Z,3.1
2024-05-09T12:03:08.338Z,2.5
2024-05-09T12:09:00.762Z,3.2
2024-05-09T12:14:45.652Z,3
2024-05-09T12:20:42.076Z,2.8
2024-05-09T12:26:27.016Z,2.7
2024-05-09T12:32:18.113Z,3.2
2024-05-09T12:38:04.273Z,2.9
2024-05-09T12:43:55.112Z,3.2
2024-05-09T12:49:52.591Z,3.4
2024-05-09T12:56:01.695Z,3.4
2024-05-09T13:02:08.712Z,2.7
2024-05-09T13:07:52.942Z,2.4
2024-05-09T13:13:53.956Z,2.9
2024-05-09T13:19:43.639Z,2.8
2024-05-09T13:25:44.762Z,2.7
2024-05-09T13:31:42.845Z,3
2024-05-09T13:37:32.818Z,2.9
2024-05-09T13:43:16.837Z,2.3
2024-05-09T13:49:14.022Z,2
2024-05-09T13:55:11.237Z,2.2
2024-05-09T14:01:02.097Z,1.6
2024-05-09T14:06:59.871Z,2.2
2024-05-09T14:12:51.412Z,1.5
2024-05-09T14:18:36.316Z,1.8
2024-05-09T14:24:20.355Z,2.3
2024-05-09T14:30:14.958Z,1.9
2024-05-09T14:36:18.739Z,2.2
2024-05-09T14:42:02.479Z,1.5
2024-05-09T14:47:54.896Z,2.3
2024-05-09T14:53:44.831Z,1.9
2024-05-09T14:59:34.723Z,2.8
2024-05-09T15:05:25.036Z,1.5
2024-05-09T15:11:16.119Z,2
2024-05-09T15:17:20.945Z,2
2024-05-09T15:23:05.872Z,1.8
2024-05-09T15:28:51.569Z,2.8
2024-05-09T15:34:48.604Z,3.5
2024-05-09T15:40:41.921Z,2.7
2024-05-09T15:46:33.078Z,2.9
2024-05-09T15:52:19.432Z,2.4
2024-05-09T15:58:05.006Z,2.6
2024-05-09T16:03:50.820Z,2.1
2024-05-09T16:09:41.236Z,2.6
2024-05-09T16:15:31.925Z,2.8
2024-05-09T16:21:15.889Z,2.8
2024-05-09T16:27:00.103Z,2.5
2024-05-09T16:33:01.272Z,2.8
2024-05-09T16:38:46.721Z,2.7
2024-05-09T16:44:33.034Z,2.2
2024-05-09T16:50:31.519Z,2.4
2024-05-09T16:56:24.686Z,2.2
2024-05-09T17:02:39.459Z,2.7
2024-05-09T17:08:31.409Z,2.3
2024-05-09T17:14:16.402Z,2.3
2024-05-09T17:20:02.324Z,2.4
2024-05-09T17:25:49.209Z,1.9
2024-05-09T17:31:33.686Z,3
2024-05-09T17:37:24.713Z,2.3
2024-05-09T17:43:13.121Z,2.1
2024-05-09T17:49:02.720Z,1.9
2024-05-09T17:54:46.887Z,2.8
2024-05-09T18:00:42.044Z,2.5
2024-05-09T18:06:27.908Z,2.6
2024-05-09T18:12:12.175Z,2.7
2024-05-09T18:18:10.961Z,1.9
2024-05-09T18:23:58.746Z,2.7
2024-05-09T18:29:52.292Z,2.9
2024-05-09T18:35:39.114Z,2.8
2024-05-09T18:41:25.277Z,2.2
2024-05-09T18:47:21.335Z,2.6
2024-05-09T18:53:07.655Z,3.1
2024-05-09T18:58:51.598Z,2.7
2024-05-09T19:04:51.672Z,3.2
2024-05-09T19:10:44.488Z,3.4
2024-05-09T19:16:35.397Z,2.6
2024-05-09T19:22:21.692Z,2.9
2024-05-09T19:28:06.954Z,2.3
2024-05-09T19:34:02.402Z,3.2
2024-05-09T19:39:47.465Z,1.9
2024-05-09T19:45:32.956Z,2.8
2024-05-09T19:51:20.762Z,3
2024-05-09T19:57:18.016Z,2.8
2024-05-09T20:03:02.327Z,2.7
2024-05-09T20:08:59.433Z,2.5
2024-05-09T20:14:43.248Z,2.7
2024-05-09T20:20:39.520Z,1.7
2024-05-09T20:26:32.087Z,2.3
2024-05-09T20:32:22.510Z,3.5
2024-05-09T20:38:12.504Z,2.3
2024-05-09T20:43:58.493Z,2.5
2024-05-09T20:49:48.923Z,3.1
2024-05-09T20:55:32.948Z,2.6
2024-05-09T21:01:23.894Z,2.3
2024-05-09T21:13:02.848Z,2.5
2024-05-09T21:18:49.484Z,2.7
2024-05-09T21:24:33.468Z,2.9
2024-05-09T21:30:40.038Z,2.6
2024-05-09T21:36:26.112Z,3.1
2024-05-09T21:42:12.035Z,3.4
2024-05-09T21:47:56.486Z,3.4
2024-05-09T21:53:46.548Z,3.2
2024-05-09T21:59:31.262Z,2.6
2024-05-09T22:05:17.471Z,2.9
2024-05-09T22:11:02.847Z,2.2
2024-05-09T22:16:50.857Z,3
2024-05-09T22:22:34.748Z,3.1
2024-05-09T22:28:19.778Z,3.4
2024-05-09T22:34:06.873Z,3.4
2024-05-09T22:39:57.818Z,2.7
2024-05-09T22:45:44.071Z,3
2024-05-09T22:51:28.474Z,2.8
2024-05-09T22:57:12.484Z,2.2
2024-05-09T23:02:58.347Z,3.8
2024-05-09T23:08:42.675Z,2.9
2024-05-09T23:14:33.081Z,3.3
2024-05-09T23:20:35.790Z,3.2
2024-05-09T23:26:24.852Z,3.5
2024-05-09T23:32:22.336Z,3.2
2024-05-09T23:38:06.689Z,3.6
2024-05-09T23:43:50.373Z,3.2
2024-05-09T23:49:48.338Z,3.8
2024-05-09T23:55:34.912Z,3.4
